createdAt,value
2018-01-28T00:01:36.189Z,6.79
2018-01-28T00:04:03.753Z,6.76
2018-01-28T00:06:31.903Z,6.77
2018-01-28T00:08:59.463Z,6.78
2018-01-28T00:11:26.951Z,6.78
2018-01-28T00:13:54.699Z,6.77
2018-01-28T00:16:23.331Z,6.75
2018-01-28T00:18:50.935Z,6.77
2018-01-28T00:21:19.006Z,6.80
2018-01-28T00:23:46.815Z,6.80
2018-01-28T00:26:14.698Z,6.79
2018-01-28T00:28:43.633Z,6.77
2018-01-28T00:31:11.256Z,6.80
2018-01-28T00:33:38.948Z,6.80
2018-01-28T00:36:06.706Z,6.81
2018-01-28T00:38:34.425Z,6.79
2018-01-28T00:41:02.249Z,6.82
2018-01-28T00:43:29.798Z,6.82
2018-01-28T00:45:57.834Z,6.81
2018-01-28T00:48:25.357Z,6.83
2018-01-28T00:50:53.067Z,6.81
2018-01-28T00:53:20.723Z,6.80
2018-01-28T00:55:49.421Z,6.83
2018-01-28T00:58:18.026Z,6.86
2018-01-28T01:00:45.530Z,6.84
2018-01-28T01:03:13.033Z,6.85
2018-01-28T01:05:40.727Z,6.90
2018-01-28T01:08:08.333Z,6.92
2018-01-28T01:10:36.619Z,6.91
2018-01-28T01:13:04.303Z,6.93
2018-01-28T01:15:31.974Z,6.93
2018-01-28T01:17:59.436Z,6.95
2018-01-28T01:20:27.028Z,6.95
2018-01-28T01:22:54.555Z,6.99
2018-01-28T01:25:22.059Z,7.01
2018-01-28T01:27:50.568Z,6.99
2018-01-28T01:30:18.037Z,7.00
2018-01-28T01:32:45.512Z,7.01
2018-01-28T01:35:36.637Z,7.03
2018-01-28T01:38:04.092Z,7.05
2018-01-28T01:40:31.564Z,7.02
2018-01-28T01:42:59.041Z,7.03
2018-01-28T01:45:26.536Z,7.02
2018-01-28T01:47:54.023Z,7.03
2018-01-28T01:50:21.563Z,7.05
2018-01-28T01:52:49.731Z,7.07
2018-01-28T01:55:17.247Z,7.10
2018-01-28T01:57:44.746Z,7.09
2018-01-28T02:00:12.457Z,7.08
2018-01-28T02:02:39.960Z,7.12
2018-01-28T02:05:08.588Z,7.12
2018-01-28T02:07:37.006Z,7.15
2018-01-28T02:10:05.611Z,7.13
2018-01-28T02:12:33.143Z,7.18
2018-01-28T02:15:00.734Z,7.18
2018-01-28T02:17:28.240Z,7.16
2018-01-28T02:19:55.795Z,7.15
2018-01-28T02:22:23.622Z,7.19
2018-01-28T02:24:51.302Z,7.18
2018-01-28T02:27:18.880Z,7.18
2018-01-28T02:29:47.747Z,7.18
2018-01-28T02:32:15.444Z,7.21
2018-01-28T02:34:43.944Z,7.23
2018-01-28T02:37:12.313Z,7.26
2018-01-28T02:39:40.642Z,7.26
2018-01-28T02:42:10.421Z,7.33
2018-01-28T02:44:37.950Z,7.30
2018-01-28T02:47:05.445Z,7.31
2018-01-28T02:49:32.929Z,7.33
2018-01-28T02:52:00.381Z,7.33
2018-01-28T02:54:27.871Z,7.32
2018-01-28T02:56:55.402Z,7.32
2018-01-28T02:59:22.902Z,7.32
2018-01-28T03:01:51.251Z,7.34
2018-01-28T03:04:18.718Z,7.37
2018-01-28T03:06:46.271Z,7.41
2018-01-28T03:09:13.765Z,7.43
2018-01-28T03:11:41.300Z,7.47
2018-01-28T03:14:08.853Z,7.52
2018-01-28T03:16:37.205Z,7.53
2018-01-28T03:19:04.739Z,7.51
2018-01-28T03:21:34.010Z,7.51
2018-01-28T03:24:01.481Z,7.51
2018-01-28T03:26:28.995Z,7.48
2018-01-28T03:28:56.487Z,7.50
2018-01-28T03:31:23.978Z,7.51
2018-01-28T03:33:51.529Z,7.51
2018-01-28T03:36:19.000Z,7.50
2018-01-28T03:38:46.484Z,7.49
2018-01-28T03:41:13.983Z,7.51
2018-01-28T03:43:41.484Z,7.53
2018-01-28T03:46:08.988Z,7.57
2018-01-28T03:48:36.437Z,7.58
2018-01-28T03:51:03.942Z,7.64
2018-01-28T03:53:31.410Z,7.66
2018-01-28T03:55:58.968Z,7.69
2018-01-28T03:58:26.420Z,7.67
2018-01-28T04:00:53.878Z,7.69
2018-01-28T04:03:21.490Z,7.71
2018-01-28T04:05:48.958Z,7.73
2018-01-28T04:08:17.106Z,7.74
2018-01-28T04:10:44.616Z,7.76
2018-01-28T04:13:12.095Z,7.74
2018-01-28T04:15:39.742Z,7.77
2018-01-28T04:18:07.204Z,7.76
2018-01-28T04:20:34.682Z,7.74
2018-01-28T04:23:02.185Z,7.75
2018-01-28T04:25:29.806Z,7.79
2018-01-28T04:27:57.270Z,7.81
2018-01-28T04:30:24.740Z,7.85
2018-01-28T04:32:52.269Z,7.87
2018-01-28T04:35:20.682Z,7.88
2018-01-28T04:37:48.216Z,7.89
2018-01-28T04:40:15.675Z,7.92
2018-01-28T04:42:43.121Z,7.93
2018-01-28T04:45:10.727Z,7.94
2018-01-28T04:47:38.169Z,7.96
2018-01-28T04:50:05.634Z,8.02
2018-01-28T04:52:33.152Z,7.98
2018-01-28T04:55:00.632Z,7.98
2018-01-28T04:57:28.100Z,7.99
2018-01-28T04:59:55.622Z,7.98
2018-01-28T05:02:23.090Z,8.00
2018-01-28T05:04:50.572Z,8.01
2018-01-28T05:07:18.042Z,8.06
2018-01-28T05:09:45.573Z,8.05
2018-01-28T05:12:13.057Z,8.04
2018-01-28T05:14:40.557Z,8.05
2018-01-28T05:17:08.027Z,8.05
2018-01-28T05:19:35.486Z,8.05
2018-01-28T05:22:02.941Z,8.08
2018-01-28T05:24:30.523Z,8.04
2018-01-28T05:26:58.026Z,8.02
2018-01-28T05:29:25.573Z,8.01
2018-01-28T05:31:53.053Z,8.01
2018-01-28T05:34:21.430Z,7.99
2018-01-28T05:36:48.988Z,8.00
2018-01-28T05:39:16.503Z,7.99
2018-01-28T05:41:44.949Z,7.95
2018-01-28T05:44:12.404Z,7.91
2018-01-28T05:46:39.871Z,7.89
2018-01-28T05:49:07.319Z,7.93
2018-01-28T05:51:35.598Z,7.93
2018-01-28T05:54:03.100Z,7.93
2018-01-28T05:56:30.615Z,7.87
2018-01-28T05:58:58.116Z,7.88
2018-01-28T06:01:25.669Z,7.90
2018-01-28T06:03:53.130Z,7.85
2018-01-28T06:06:20.772Z,7.88
2018-01-28T06:08:48.273Z,7.92
2018-01-28T06:11:15.747Z,7.93
2018-01-28T06:13:43.249Z,7.89
2018-01-28T06:16:10.783Z,7.87
2018-01-28T06:18:38.259Z,7.85
2018-01-28T06:21:05.703Z,7.86
2018-01-28T06:23:33.190Z,7.85
2018-01-28T06:26:00.897Z,7.88
2018-01-28T06:28:28.488Z,7.86
2018-01-28T06:30:55.980Z,7.83
2018-01-28T06:33:23.455Z,7.83
2018-01-28T06:35:51.062Z,7.84
2018-01-28T06:38:18.545Z,7.79
2018-01-28T06:40:46.126Z,7.81
2018-01-28T06:43:14.456Z,7.84
2018-01-28T06:45:41.917Z,7.81
2018-01-28T06:48:09.407Z,7.83
2018-01-28T06:50:36.981Z,7.83
2018-01-28T06:53:04.476Z,7.85
2018-01-28T06:55:31.993Z,7.80
2018-01-28T06:57:59.539Z,7.78
2018-01-28T07:00:27.077Z,7.75
2018-01-28T07:02:54.687Z,7.78
2018-01-28T07:05:22.282Z,7.78
2018-01-28T07:07:49.734Z,7.76
2018-01-28T07:10:17.276Z,7.82
2018-01-28T07:12:46.005Z,7.83
2018-01-28T07:15:14.460Z,7.84
2018-01-28T07:17:41.978Z,7.82
2018-01-28T07:20:09.510Z,7.82
2018-01-28T07:22:37.003Z,7.83
2018-01-28T07:25:04.493Z,7.84
2018-01-28T07:27:32.775Z,7.84
2018-01-28T07:30:01.114Z,7.81
2018-01-28T07:32:28.592Z,7.83
2018-01-28T07:34:59.086Z,7.83
2018-01-28T07:37:26.877Z,7.85
2018-01-28T07:39:54.389Z,7.90
2018-01-28T07:42:23.017Z,7.85
2018-01-28T07:44:51.566Z,7.89
2018-01-28T07:47:19.015Z,7.90
2018-01-28T07:49:46.495Z,7.87
2018-01-28T07:52:14.976Z,7.92
2018-01-28T07:54:42.526Z,7.88
2018-01-28T07:57:09.996Z,7.92
2018-01-28T07:59:37.522Z,7.94
2018-01-28T08:02:05.143Z,7.93
2018-01-28T08:04:32.654Z,7.98
2018-01-28T08:07:00.279Z,7.96
2018-01-28T08:09:28.260Z,7.99
2018-01-28T08:12:02.278Z,8.03
2018-01-28T08:14:30.827Z,8.01
2018-01-28T08:16:58.392Z,8.06
2018-01-28T08:19:26.471Z,8.05
2018-01-28T08:21:54.061Z,8.06
2018-01-28T08:24:21.719Z,8.05
2018-01-28T08:26:54.754Z,8.05
2018-01-28T08:29:22.246Z,8.09
2018-01-28T08:31:49.929Z,8.13
2018-01-28T08:34:17.442Z,8.16
2018-01-28T08:36:44.922Z,8.18
2018-01-28T08:39:12.504Z,8.21
2018-01-28T08:41:40.044Z,8.26
2018-01-28T08:44:07.556Z,8.28
2018-01-28T08:46:35.065Z,8.29
2018-01-28T08:49:02.648Z,8.33
2018-01-28T08:51:30.171Z,8.35
2018-01-28T08:54:02.942Z,8.40
2018-01-28T08:56:30.703Z,8.42
2018-01-28T08:58:58.255Z,8.43
2018-01-28T09:01:25.852Z,8.46
2018-01-28T09:03:53.359Z,8.47
2018-01-28T09:06:20.972Z,8.49
2018-01-28T09:08:48.616Z,8.52
2018-01-28T09:11:16.147Z,8.56
2018-01-28T09:13:43.617Z,8.63
2018-01-28T09:16:11.146Z,8.64
2018-01-28T09:18:38.619Z,8.68
2018-01-28T09:21:06.193Z,8.74
2018-01-28T09:23:33.701Z,8.81
2018-01-28T09:26:01.232Z,8.91
2018-01-28T09:28:28.959Z,8.93
2018-01-28T09:30:56.432Z,8.90
2018-01-28T09:33:23.963Z,8.90
2018-01-28T09:35:51.530Z,8.90
2018-01-28T09:38:19.054Z,8.85
2018-01-28T09:40:46.583Z,8.81
2018-01-28T09:43:14.313Z,8.82
2018-01-28T09:45:41.752Z,8.79
2018-01-28T09:48:09.258Z,8.77
2018-01-28T09:50:36.971Z,8.79
2018-01-28T09:53:04.553Z,8.77
2018-01-28T09:55:56.121Z,8.82
2018-01-28T09:58:23.773Z,8.86
2018-01-28T10:00:51.358Z,8.90
2018-01-28T10:03:18.938Z,8.91
2018-01-28T10:05:46.482Z,8.94
2018-01-28T10:08:14.082Z,8.97
2018-01-28T10:10:41.598Z,8.91
2018-01-28T10:13:09.551Z,8.95
2018-01-28T10:15:37.214Z,8.98
2018-01-28T10:18:04.842Z,9.00
2018-01-28T10:20:32.353Z,9.01
2018-01-28T10:23:00.061Z,9.05
2018-01-28T10:25:28.452Z,9.08
2018-01-28T10:27:56.143Z,9.08
2018-01-28T10:30:23.849Z,9.10
2018-01-28T10:32:51.385Z,9.09
2018-01-28T10:35:18.958Z,9.12
2018-01-28T10:37:47.304Z,9.12
2018-01-28T10:40:14.878Z,9.10
2018-01-28T10:42:42.661Z,9.09
2018-01-28T10:45:10.190Z,9.06
2018-01-28T10:47:37.666Z,9.08
2018-01-28T10:50:05.425Z,9.14
2018-01-28T10:52:32.946Z,9.10
2018-01-28T10:55:00.583Z,9.11
2018-01-28T10:57:28.117Z,9.10
2018-01-28T10:59:56.700Z,9.09
2018-01-28T11:02:24.430Z,9.07
2018-01-28T11:04:52.050Z,9.07
2018-01-28T11:07:19.649Z,9.09
2018-01-28T11:09:47.225Z,9.06
2018-01-28T11:12:14.984Z,9.05
2018-01-28T11:14:42.600Z,9.06
2018-01-28T11:17:10.120Z,9.08
2018-01-28T11:19:37.794Z,9.14
2018-01-28T11:22:05.647Z,9.13
2018-01-28T11:24:33.193Z,9.11
2018-01-28T11:27:00.839Z,9.09
2018-01-28T11:29:29.285Z,9.07
2018-01-28T11:31:56.787Z,9.05
2018-01-28T11:34:24.366Z,9.06
2018-01-28T11:36:51.846Z,9.09
2018-01-28T11:39:19.426Z,9.09
2018-01-28T11:41:46.948Z,9.13
2018-01-28T11:44:14.510Z,9.15
2018-01-28T11:46:42.327Z,9.14
2018-01-28T11:49:10.210Z,9.18
2018-01-28T11:51:37.834Z,9.23
2018-01-28T11:54:10.625Z,9.24
2018-01-28T11:56:38.359Z,9.21
2018-01-28T11:59:05.929Z,9.23
2018-01-28T12:01:33.553Z,9.25
2018-01-28T12:04:03.073Z,9.27
2018-01-28T12:06:30.694Z,9.27
2018-01-28T12:08:58.676Z,9.24
2018-01-28T12:11:26.258Z,9.25
2018-01-28T12:13:54.120Z,9.29
2018-01-28T12:16:21.611Z,9.32
2018-01-28T12:18:49.584Z,9.32
2018-01-28T12:21:18.369Z,9.32
2018-01-28T12:23:45.865Z,9.35
2018-01-28T12:26:13.461Z,9.33
2018-01-28T12:28:41.094Z,9.38
2018-01-28T12:31:08.718Z,9.39
2018-01-28T12:33:36.252Z,9.41
2018-01-28T12:36:03.848Z,9.46
2018-01-28T12:38:31.779Z,9.49
2018-01-28T12:40:59.524Z,9.50
2018-01-28T12:43:27.105Z,9.51
2018-01-28T12:45:54.554Z,9.54
2018-01-28T12:48:22.052Z,9.51
2018-01-28T12:50:50.417Z,9.49
2018-01-28T12:53:17.973Z,9.53
2018-01-28T12:55:45.550Z,9.53
2018-01-28T12:58:13.188Z,9.54
2018-01-28T13:00:40.748Z,9.50
2018-01-28T13:03:08.314Z,9.50
2018-01-28T13:05:35.852Z,9.51
2018-01-28T13:08:04.197Z,9.56
2018-01-28T13:10:31.716Z,9.55
2018-01-28T13:12:59.358Z,9.54
2018-01-28T13:15:36.663Z,9.50
2018-01-28T13:18:04.299Z,9.51
2018-01-28T13:20:31.825Z,9.48
2018-01-28T13:22:59.285Z,9.50
2018-01-28T13:25:27.311Z,9.52
2018-01-28T13:27:55.228Z,9.53
2018-01-28T13:30:22.899Z,9.50
2018-01-28T13:32:50.473Z,9.47
2018-01-28T13:35:18.052Z,9.46
2018-01-28T13:37:45.577Z,9.49
2018-01-28T13:40:13.234Z,9.50
2018-01-28T13:42:40.854Z,9.49
2018-01-28T13:45:08.487Z,9.53
2018-01-28T13:47:36.032Z,9.55
2018-01-28T13:50:03.952Z,9.54
2018-01-28T13:52:31.571Z,9.52
2018-01-28T13:54:59.179Z,9.52
2018-01-28T13:57:26.756Z,9.54
2018-01-28T13:59:54.246Z,9.56
2018-01-28T14:02:21.882Z,9.60
2018-01-28T14:04:49.497Z,9.63
2018-01-28T14:07:17.157Z,9.69
2018-01-28T14:09:44.618Z,9.73
2018-01-28T14:12:12.119Z,9.73
2018-01-28T14:14:49.187Z,9.71
2018-01-28T14:17:17.042Z,9.68
2018-01-28T14:19:44.536Z,9.64
2018-01-28T14:22:12.209Z,9.64
2018-01-28T14:24:39.777Z,9.61
2018-01-28T14:27:07.387Z,9.61
2018-01-28T14:29:34.885Z,9.62
2018-01-28T14:32:02.430Z,9.62
2018-01-28T14:34:30.050Z,9.62
2018-01-28T14:36:57.591Z,9.61
2018-01-28T14:39:25.155Z,9.67
2018-01-28T14:41:52.673Z,9.69
2018-01-28T14:44:20.203Z,9.71
2018-01-28T14:46:47.808Z,9.70
2018-01-28T14:49:15.384Z,9.69
2018-01-28T14:51:43.040Z,9.70
2018-01-28T14:54:10.624Z,9.70
2018-01-28T14:56:38.231Z,9.72
2018-01-28T14:59:05.816Z,9.75
2018-01-28T15:01:33.388Z,9.72
2018-01-28T15:04:00.851Z,9.70
2018-01-28T15:06:28.585Z,9.70
2018-01-28T15:08:56.117Z,9.69
2018-01-28T15:11:23.709Z,9.72
2018-01-28T15:13:51.202Z,9.72
2018-01-28T15:16:18.718Z,9.75
2018-01-28T15:18:46.296Z,9.76
2018-01-28T15:21:13.921Z,9.73
2018-01-28T15:23:41.483Z,9.74
2018-01-28T15:26:09.297Z,9.75
2018-01-28T15:28:36.873Z,9.76
2018-01-28T15:31:04.430Z,9.74
2018-01-28T15:33:31.932Z,9.73
2018-01-28T15:35:59.380Z,9.71
2018-01-28T15:38:26.900Z,9.68
2018-01-28T15:40:54.647Z,9.68
2018-01-28T15:43:22.173Z,9.69
2018-01-28T15:45:49.703Z,9.67
2018-01-28T15:48:17.320Z,9.67
2018-01-28T15:50:44.835Z,9.64
2018-01-28T15:53:12.346Z,9.62
2018-01-28T15:55:39.862Z,9.60
2018-01-28T15:58:07.332Z,9.62
2018-01-28T16:00:34.909Z,9.60
2018-01-28T16:03:02.564Z,9.59
2018-01-28T16:05:30.199Z,9.60
2018-01-28T16:07:57.770Z,9.59
2018-01-28T16:10:25.306Z,9.57
2018-01-28T16:12:52.794Z,9.57
2018-01-28T16:15:20.335Z,9.57
2018-01-28T16:17:48.009Z,9.59
2018-01-28T16:20:15.494Z,9.57
2018-01-28T16:22:43.175Z,9.60
2018-01-28T16:25:10.803Z,9.58
2018-01-28T16:27:38.336Z,9.62
2018-01-28T16:30:05.837Z,9.61
2018-01-28T16:32:33.514Z,9.57
2018-01-28T16:35:01.000Z,9.56
2018-01-28T16:37:28.584Z,9.56
2018-01-28T16:39:56.094Z,9.55
2018-01-28T16:42:23.657Z,9.59
2018-01-28T16:44:51.214Z,9.59
2018-01-28T16:47:18.790Z,9.60
2018-01-28T16:49:46.278Z,9.60
2018-01-28T16:52:13.827Z,9.62
2018-01-28T16:54:41.417Z,9.62
2018-01-28T16:57:08.983Z,9.62
2018-01-28T16:59:36.584Z,9.60
2018-01-28T17:02:05.074Z,9.61
2018-01-28T17:04:32.666Z,9.62
2018-01-28T17:07:00.135Z,9.62
2018-01-28T17:09:27.698Z,9.65
2018-01-28T17:11:55.279Z,9.65
2018-01-28T17:14:22.926Z,9.65
2018-01-28T17:16:50.812Z,9.66
2018-01-28T17:19:18.403Z,9.70
2018-01-28T17:21:45.941Z,9.70
2018-01-28T17:24:13.576Z,9.69
2018-01-28T17:26:41.177Z,9.73
2018-01-28T17:29:08.766Z,9.72
2018-01-28T17:31:36.387Z,9.75
2018-01-28T17:34:04.021Z,9.75
2018-01-28T17:36:31.747Z,9.72
2018-01-28T17:38:59.348Z,9.73
2018-01-28T17:41:26.887Z,9.73
2018-01-28T17:43:54.427Z,9.72
2018-01-28T17:46:22.102Z,9.72
2018-01-28T17:48:49.761Z,9.70
2018-01-28T17:51:17.454Z,9.70
2018-01-28T17:53:44.983Z,9.69
2018-01-28T17:56:12.536Z,9.68
2018-01-28T17:58:40.934Z,9.68
2018-01-28T18:01:08.489Z,9.69
2018-01-28T18:03:36.101Z,9.71
2018-01-28T18:06:03.643Z,9.72
2018-01-28T18:08:31.687Z,9.76
2018-01-28T18:10:59.457Z,9.78
2018-01-28T18:13:27.067Z,9.73
2018-01-28T18:15:54.743Z,9.75
2018-01-28T18:18:22.264Z,9.80
2018-01-28T18:20:49.742Z,9.79
2018-01-28T18:23:17.342Z,9.83
2018-01-28T18:25:44.987Z,9.79
2018-01-28T18:28:12.497Z,9.84
2018-01-28T18:30:40.047Z,9.83
2018-01-28T18:33:07.597Z,9.83
2018-01-28T18:35:35.119Z,9.83
2018-01-28T18:38:02.659Z,9.79
2018-01-28T18:40:30.198Z,9.80
2018-01-28T18:42:57.673Z,9.79
2018-01-28T18:45:25.234Z,9.81
2018-01-28T18:47:52.736Z,9.82
2018-01-28T18:50:20.237Z,9.85
2018-01-28T18:52:48.770Z,9.82
2018-01-28T18:55:16.354Z,9.78
2018-01-28T18:57:44.052Z,9.83
2018-01-28T19:00:11.628Z,9.81
2018-01-28T19:02:39.183Z,9.82
2018-01-28T19:05:06.798Z,9.84
2018-01-28T19:07:34.325Z,9.83
2018-01-28T19:10:01.983Z,9.83
2018-01-28T19:12:29.481Z,9.86
2018-01-28T19:14:57.969Z,9.86
2018-01-28T19:17:25.517Z,9.84
2018-01-28T19:19:53.051Z,9.86
2018-01-28T19:22:20.616Z,9.86
2018-01-28T19:24:48.244Z,9.90
2018-01-28T19:27:15.841Z,9.89
2018-01-28T19:29:43.358Z,9.88
2018-01-28T19:32:10.887Z,9.91
2018-01-28T19:34:38.594Z,9.94
2018-01-28T19:37:06.147Z,9.94
2018-01-28T19:39:33.738Z,9.90
2018-01-28T19:42:01.620Z,9.92
2018-01-28T19:44:30.069Z,9.96
2018-01-28T19:47:00.040Z,9.96
2018-01-28T19:49:27.866Z,10.01
2018-01-28T19:51:55.609Z,10.01
2018-01-28T19:54:24.550Z,10.03
2018-01-28T19:56:52.180Z,10.05
2018-01-28T19:59:19.988Z,10.06
2018-01-28T20:01:48.408Z,10.05
2018-01-28T20:04:16.058Z,10.04
2018-01-28T20:06:44.820Z,10.04
2018-01-28T20:09:12.605Z,10.01
2018-01-28T20:11:40.122Z,10.03
2018-01-28T20:14:07.801Z,10.02
2018-01-28T20:16:35.715Z,10.02
2018-01-28T20:19:03.266Z,10.00
2018-01-28T20:21:30.788Z,10.07
2018-01-28T20:23:58.379Z,10.10
2018-01-28T20:26:25.933Z,10.12
2018-01-28T20:28:53.595Z,10.16
2018-01-28T20:31:21.534Z,10.19
2018-01-28T20:33:49.109Z,10.18
2018-01-28T20:36:16.680Z,10.21
2018-01-28T20:38:44.983Z,10.22
2018-01-28T20:41:12.617Z,10.22
2018-01-28T20:43:40.770Z,10.26
2018-01-28T20:46:27.577Z,10.27
2018-01-28T20:48:56.161Z,10.26
2018-01-28T20:51:24.092Z,10.25
2018-01-28T20:53:51.639Z,10.25
2018-01-28T20:56:20.018Z,10.26
2018-01-28T20:58:47.942Z,10.27
2018-01-28T21:01:15.420Z,10.27
2018-01-28T21:03:43.238Z,10.26
2018-01-28T21:06:10.738Z,10.27
2018-01-28T21:08:38.306Z,10.28
2018-01-28T21:11:05.880Z,10.28
2018-01-28T21:13:33.494Z,10.28
2018-01-28T21:16:01.264Z,10.32
2018-01-28T21:18:28.784Z,10.34
2018-01-28T21:20:56.342Z,10.35
2018-01-28T21:23:24.189Z,10.35
2018-01-28T21:25:51.841Z,10.36
2018-01-28T21:28:19.713Z,10.35
2018-01-28T21:30:47.303Z,10.37
2018-01-28T21:33:14.932Z,10.36
2018-01-28T21:35:47.580Z,10.38
2018-01-28T21:38:15.151Z,10.35
2018-01-28T21:40:42.741Z,10.38
2018-01-28T21:43:10.275Z,10.38
2018-01-28T21:45:37.782Z,10.40
2018-01-28T21:48:05.333Z,10.41
2018-01-28T21:50:32.870Z,10.38
2018-01-28T21:53:00.360Z,10.39
2018-01-28T21:55:27.930Z,10.41
2018-01-28T21:57:55.714Z,10.45
2018-01-28T22:00:23.210Z,10.48
2018-01-28T22:02:50.912Z,10.47
2018-01-28T22:05:18.455Z,10.44
2018-01-28T22:07:45.954Z,10.43
2018-01-28T22:10:13.508Z,10.47
2018-01-28T22:12:41.384Z,10.45
2018-01-28T22:15:08.902Z,10.47
2018-01-28T22:17:36.421Z,10.48
2018-01-28T22:20:03.929Z,10.46
2018-01-28T22:22:31.522Z,10.48
2018-01-28T22:24:59.063Z,10.47
2018-01-28T22:27:26.671Z,10.47
2018-01-28T22:29:55.144Z,10.47
2018-01-28T22:32:22.672Z,10.48
2018-01-28T22:34:50.286Z,10.50
2018-01-28T22:37:17.937Z,10.51
2018-01-28T22:39:45.502Z,10.50
2018-01-28T22:42:13.042Z,10.48
2018-01-28T22:44:40.567Z,10.46
2018-01-28T22:47:08.096Z,10.48
2018-01-28T22:49:35.587Z,10.48
2018-01-28T22:52:03.217Z,10.50
2018-01-28T22:54:30.712Z,10.51
2018-01-28T22:56:58.201Z,10.50
2018-01-28T22:59:25.687Z,10.51
2018-01-28T23:01:53.241Z,10.50
2018-01-28T23:04:20.776Z,10.53
2018-01-28T23:06:48.307Z,10.52
2018-01-28T23:09:15.820Z,10.51
2018-01-28T23:11:43.469Z,10.52
2018-01-28T23:14:10.946Z,10.53
2018-01-28T23:16:38.463Z,10.55
2018-01-28T23:19:05.931Z,10.52
2018-01-28T23:21:33.487Z,10.54
2018-01-28T23:24:01.102Z,10.55
2018-01-28T23:26:28.571Z,10.55
2018-01-28T23:28:56.137Z,10.57
2018-01-28T23:31:23.652Z,10.58
2018-01-28T23:33:51.433Z,10.56
2018-01-28T23:36:19.009Z,10.59
2018-01-28T23:38:46.547Z,10.58
2018-01-28T23:41:14.073Z,10.57
2018-01-28T23:43:41.541Z,10.53
2018-01-28T23:46:09.082Z,10.53
2018-01-28T23:48:36.545Z,10.52
2018-01-28T23:51:04.056Z,10.55
2018-01-28T23:53:31.550Z,10.57
2018-01-28T23:55:59.040Z,10.54
2018-01-28T23:58:26.541Z,10.54
